sensor_id;sensor_type;location;lat;lon;timestamp;P1;durP1;ratioP1;P2;durP2;ratioP2
25069;SDS011;13064;48.162;11.536;2023-06-24T00:01:09;5.60;;;3.72;;
25069;SDS011;13064;48.162;11.536;2023-06-24T00:07:34;5.53;;;3.15;;
25069;SDS011;13064;48.162;11.536;2023-06-24T00:18:23;5.03;;;3.45;;
25069;SDS011;13064;48.162;11.536;2023-06-24T00:24:51;4.47;;;3.28;;
25069;SDS011;13064;48.162;11.536;2023-06-24T00:31:19;3.85;;;3.15;;
25069;SDS011;13064;48.162;11.536;2023-06-24T00:37:49;6.43;;;3.03;;
25069;SDS011;13064;48.162;11.536;2023-06-24T00:44:12;3.90;;;3.13;;
25069;SDS011;13064;48.162;11.536;2023-06-24T00:50:39;3.47;;;3.08;;
25069;SDS011;13064;48.162;11.536;2023-06-24T00:57:12;5.25;;;3.40;;
25069;SDS011;13064;48.162;11.536;2023-06-24T01:03:40;7.30;;;3.35;;
25069;SDS011;13064;48.162;11.536;2023-06-24T01:10:10;5.38;;;3.55;;
25069;SDS011;13064;48.162;11.536;2023-06-24T01:23:15;3.55;;;3.00;;
25069;SDS011;13064;48.162;11.536;2023-06-24T01:45:21;5.63;;;3.30;;
25069;SDS011;13064;48.162;11.536;2023-06-24T01:55:00;4.60;;;3.42;;
25069;SDS011;13064;48.162;11.536;2023-06-24T02:01:22;3.88;;;2.75;;
25069;SDS011;13064;48.162;11.536;2023-06-24T02:07:53;5.43;;;3.65;;
25069;SDS011;13064;48.162;11.536;2023-06-24T02:14:22;6.13;;;3.40;;
25069;SDS011;13064;48.162;11.536;2023-06-24T02:20:51;4.18;;;2.97;;
25069;SDS011;13064;48.162;11.536;2023-06-24T02:27:19;4.85;;;3.05;;
25069;SDS011;13064;48.162;11.536;2023-06-24T02:37:20;4.55;;;3.38;;
25069;SDS011;13064;48.162;11.536;2023-06-24T02:48:01;3.90;;;3.13;;
25069;SDS011;13064;48.162;11.536;2023-06-24T02:54:30;3.70;;;3.05;;
25069;SDS011;13064;48.162;11.536;2023-06-24T03:01:11;4.03;;;3.22;;
25069;SDS011;13064;48.162;11.536;2023-06-24T03:07:52;3.28;;;2.70;;
25069;SDS011;13064;48.162;11.536;2023-06-24T03:14:22;4.75;;;3.20;;
25069;SDS011;13064;48.162;11.536;2023-06-24T03:20:50;4.15;;;2.97;;
25069;SDS011;13064;48.162;11.536;2023-06-24T03:27:22;5.00;;;2.90;;
25069;SDS011;13064;48.162;11.536;2023-06-24T03:33:45;3.10;;;2.80;;
25069;SDS011;13064;48.162;11.536;2023-06-24T03:36:15;4.60;;;3.05;;
25069;SDS011;13064;48.162;11.536;2023-06-24T03:49:44;3.53;;;3.00;;
25069;SDS011;13064;48.162;11.536;2023-06-24T03:56:13;3.47;;;2.80;;
25069;SDS011;13064;48.162;11.536;2023-06-24T04:01:55;3.70;;;2.85;;
25069;SDS011;13064;48.162;11.536;2023-06-24T04:04:23;4.07;;;3.20;;
25069;SDS011;13064;48.162;11.536;2023-06-24T04:10:51;5.18;;;3.05;;
25069;SDS011;13064;48.162;11.536;2023-06-24T04:17:19;4.68;;;3.17;;
25069;SDS011;13064;48.162;11.536;2023-06-24T04:23:47;3.63;;;2.80;;
25069;SDS011;13064;48.162;11.536;2023-06-24T04:30:16;3.22;;;2.92;;
25069;SDS011;13064;48.162;11.536;2023-06-24T04:36:44;3.80;;;2.72;;
25069;SDS011;13064;48.162;11.536;2023-06-24T04:43:13;3.78;;;2.70;;
25069;SDS011;13064;48.162;11.536;2023-06-24T04:53:57;5.72;;;2.95;;
25069;SDS011;13064;48.162;11.536;2023-06-24T05:00:26;3.45;;;2.72;;
25069;SDS011;13064;48.162;11.536;2023-06-24T05:06:54;86.70;;;7.50;;
25069;SDS011;13064;48.162;11.536;2023-06-24T05:13:23;6.30;;;3.10;;
25069;SDS011;13064;48.162;11.536;2023-06-24T05:19:51;4.78;;;3.10;;
25069;SDS011;13064;48.162;11.536;2023-06-24T05:26:19;3.30;;;2.75;;
25069;SDS011;13064;48.162;11.536;2023-06-24T05:28:54;3.80;;;3.30;;
25069;SDS011;13064;48.162;11.536;2023-06-24T05:31:22;3.92;;;2.88;;
25069;SDS011;13064;48.162;11.536;2023-06-24T05:37:46;2.88;;;2.63;;
25069;SDS011;13064;48.162;11.536;2023-06-24T05:44:14;2.95;;;2.65;;
25069;SDS011;13064;48.162;11.536;2023-06-24T05:46:42;3.40;;;2.90;;
25069;SDS011;13064;48.162;11.536;2023-06-24T05:49:10;4.68;;;3.08;;
25069;SDS011;13064;48.162;11.536;2023-06-24T05:51:38;3.78;;;3.05;;
25069;SDS011;13064;48.162;11.536;2023-06-24T05:56:54;3.45;;;3.00;;
25069;SDS011;13064;48.162;11.536;2023-06-24T06:03:22;3.13;;;2.63;;
25069;SDS011;13064;48.162;11.536;2023-06-24T06:05:50;3.40;;;3.10;;
25069;SDS011;13064;48.162;11.536;2023-06-24T06:08:17;4.43;;;2.97;;
25069;SDS011;13064;48.162;11.536;2023-06-24T06:14:45;4.13;;;3.17;;
25069;SDS011;13064;48.162;11.536;2023-06-24T06:17:13;3.03;;;2.67;;
25069;SDS011;13064;48.162;11.536;2023-06-24T06:19:41;3.95;;;2.85;;
25069;SDS011;13064;48.162;11.536;2023-06-24T06:22:13;3.17;;;2.80;;
25069;SDS011;13064;48.162;11.536;2023-06-24T06:24:42;4.80;;;2.97;;
25069;SDS011;13064;48.162;11.536;2023-06-24T06:27:10;3.85;;;2.80;;
25069;SDS011;13064;48.162;11.536;2023-06-24T06:29:38;4.68;;;3.13;;
25069;SDS011;13064;48.162;11.536;2023-06-24T06:32:06;3.60;;;2.75;;
25069;SDS011;13064;48.162;11.536;2023-06-24T06:34:34;4.75;;;3.03;;
25069;SDS011;13064;48.162;11.536;2023-06-24T06:37:01;3.45;;;3.05;;
25069;SDS011;13064;48.162;11.536;2023-06-24T06:39:29;3.38;;;2.90;;
25069;SDS011;13064;48.162;11.536;2023-06-24T06:44:49;3.85;;;2.63;;
25069;SDS011;13064;48.162;11.536;2023-06-24T06:47:17;2.78;;;2.30;;
25069;SDS011;13064;48.162;11.536;2023-06-24T06:49:44;2.85;;;2.33;;
25069;SDS011;13064;48.162;11.536;2023-06-24T06:52:12;4.95;;;2.72;;
25069;SDS011;13064;48.162;11.536;2023-06-24T06:54:43;3.67;;;2.65;;
25069;SDS011;13064;48.162;11.536;2023-06-24T06:57:11;3.22;;;2.47;;
25069;SDS011;13064;48.162;11.536;2023-06-24T06:59:39;2.72;;;2.50;;
25069;SDS011;13064;48.162;11.536;2023-06-24T07:02:07;2.85;;;2.60;;
25069;SDS011;13064;48.162;11.536;2023-06-24T07:04:34;2.75;;;2.47;;
25069;SDS011;13064;48.162;11.536;2023-06-24T07:07:02;2.90;;;2.30;;
25069;SDS011;13064;48.162;11.536;2023-06-24T07:09:29;2.58;;;2.20;;
25069;SDS011;13064;48.162;11.536;2023-06-24T07:14:50;3.13;;;2.30;;
25069;SDS011;13064;48.162;11.536;2023-06-24T07:17:18;3.35;;;2.00;;
25069;SDS011;13064;48.162;11.536;2023-06-24T07:22:38;3.60;;;2.58;;
25069;SDS011;13064;48.162;11.536;2023-06-24T07:25:06;3.42;;;2.60;;
25069;SDS011;13064;48.162;11.536;2023-06-24T07:27:39;3.05;;;2.17;;
25069;SDS011;13064;48.162;11.536;2023-06-24T07:30:07;3.72;;;2.35;;
25069;SDS011;13064;48.162;11.536;2023-06-24T07:40:36;4.40;;;2.40;;
25069;SDS011;13064;48.162;11.536;2023-06-24T07:43:09;3.75;;;2.45;;
25069;SDS011;13064;48.162;11.536;2023-06-24T07:45:37;2.63;;;2.35;;
25069;SDS011;13064;48.162;11.536;2023-06-24T07:56:06;3.30;;;2.70;;
25069;SDS011;13064;48.162;11.536;2023-06-24T07:58:34;4.90;;;3.00;;
25069;SDS011;13064;48.162;11.536;2023-06-24T08:04:01;3.80;;;2.53;;
25069;SDS011;13064;48.162;11.536;2023-06-24T08:06:29;2.95;;;2.65;;
25069;SDS011;13064;48.162;11.536;2023-06-24T08:15:26;3.15;;;2.42;;
25069;SDS011;13064;48.162;11.536;2023-06-24T08:17:55;3.17;;;2.83;;
25069;SDS011;13064;48.162;11.536;2023-06-24T08:20:23;3.47;;;2.78;;
25069;SDS011;13064;48.162;11.536;2023-06-24T08:22:51;3.08;;;2.75;;
25069;SDS011;13064;48.162;11.536;2023-06-24T08:25:19;3.85;;;2.97;;
25069;SDS011;13064;48.162;11.536;2023-06-24T08:27:50;4.40;;;3.08;;
25069;SDS011;13064;48.162;11.536;2023-06-24T08:30:18;4.35;;;2.80;;
25069;SDS011;13064;48.162;11.536;2023-06-24T08:32:46;3.13;;;2.75;;
25069;SDS011;13064;48.162;11.536;2023-06-24T08:39:14;3.40;;;2.67;;
25069;SDS011;13064;48.162;11.536;2023-06-24T08:41:42;3.75;;;3.25;;
25069;SDS011;13064;48.162;11.536;2023-06-24T08:44:10;3.80;;;3.10;;
25069;SDS011;13064;48.162;11.536;2023-06-24T08:46:38;4.63;;;3.35;;
25069;SDS011;13064;48.162;11.536;2023-06-24T08:52:42;4.07;;;2.97;;
25069;SDS011;13064;48.162;11.536;2023-06-24T08:55:11;4.65;;;3.30;;
25069;SDS011;13064;48.162;11.536;2023-06-24T09:01:40;4.20;;;3.00;;
25069;SDS011;13064;48.162;11.536;2023-06-24T09:07:44;5.15;;;3.58;;
25069;SDS011;13064;48.162;11.536;2023-06-24T09:13:28;6.05;;;3.42;;
25069;SDS011;13064;48.162;11.536;2023-06-24T09:17:03;3.83;;;3.40;;
25069;SDS011;13064;48.162;11.536;2023-06-24T09:22:43;5.50;;;3.53;;
25069;SDS011;13064;48.162;11.536;2023-06-24T09:28:04;3.50;;;2.80;;
25069;SDS011;13064;48.162;11.536;2023-06-24T09:30:33;4.15;;;3.40;;
25069;SDS011;13064;48.162;11.536;2023-06-24T09:33:01;5.15;;;3.30;;
25069;SDS011;13064;48.162;11.536;2023-06-24T09:35:28;3.92;;;3.53;;
25069;SDS011;13064;48.162;11.536;2023-06-24T09:38:03;4.10;;;3.40;;
25069;SDS011;13064;48.162;11.536;2023-06-24T09:40:31;4.75;;;3.63;;
25069;SDS011;13064;48.162;11.536;2023-06-24T09:43:03;4.30;;;3.90;;
25069;SDS011;13064;48.162;11.536;2023-06-24T09:45:31;4.32;;;3.40;;
25069;SDS011;13064;48.162;11.536;2023-06-24T09:48:00;5.15;;;3.60;;
25069;SDS011;13064;48.162;11.536;2023-06-24T09:50:28;5.07;;;3.67;;
25069;SDS011;13064;48.162;11.536;2023-06-24T09:52:58;4.22;;;3.40;;
25069;SDS011;13064;48.162;11.536;2023-06-24T09:55:26;3.90;;;3.50;;
25069;SDS011;13064;48.162;11.536;2023-06-24T09:57:55;4.40;;;3.72;;
25069;SDS011;13064;48.162;11.536;2023-06-24T10:00:22;3.67;;;3.33;;
25069;SDS011;13064;48.162;11.536;2023-06-24T10:02:52;5.93;;;4.15;;
25069;SDS011;13064;48.162;11.536;2023-06-24T10:05:24;6.07;;;4.18;;
25069;SDS011;13064;48.162;11.536;2023-06-24T10:07:53;5.35;;;3.78;;
25069;SDS011;13064;48.162;11.536;2023-06-24T10:10:21;4.03;;;3.58;;
25069;SDS011;13064;48.162;11.536;2023-06-24T10:12:49;4.88;;;3.80;;
25069;SDS011;13064;48.162;11.536;2023-06-24T10:15:16;4.40;;;3.80;;
25069;SDS011;13064;48.162;11.536;2023-06-24T10:17:44;6.05;;;3.88;;
25069;SDS011;13064;48.162;11.536;2023-06-24T10:20:12;5.95;;;3.83;;
25069;SDS011;13064;48.162;11.536;2023-06-24T10:22:40;6.05;;;3.50;;
25069;SDS011;13064;48.162;11.536;2023-06-24T10:25:12;5.78;;;3.85;;
25069;SDS011;13064;48.162;11.536;2023-06-24T10:27:41;4.35;;;3.90;;
25069;SDS011;13064;48.162;11.536;2023-06-24T10:30:19;4.72;;;3.60;;
25069;SDS011;13064;48.162;11.536;2023-06-24T10:32:52;6.18;;;3.40;;
25069;SDS011;13064;48.162;11.536;2023-06-24T10:35:25;3.40;;;3.10;;
25069;SDS011;13064;48.162;11.536;2023-06-24T10:37:54;4.00;;;3.10;;
25069;SDS011;13064;48.162;11.536;2023-06-24T10:40:35;5.50;;;2.70;;
25069;SDS011;13064;48.162;11.536;2023-06-24T10:43:25;5.45;;;3.08;;
25069;SDS011;13064;48.162;11.536;2023-06-24T10:45:53;3.45;;;3.15;;
25069;SDS011;13064;48.162;11.536;2023-06-24T10:52:20;6.03;;;3.60;;
25069;SDS011;13064;48.162;11.536;2023-06-24T10:54:51;4.35;;;3.00;;
25069;SDS011;13064;48.162;11.536;2023-06-24T10:57:23;3.97;;;3.10;;
25069;SDS011;13064;48.162;11.536;2023-06-24T10:59:52;3.20;;;2.80;;
25069;SDS011;13064;48.162;11.536;2023-06-24T11:02:25;3.42;;;2.83;;
25069;SDS011;13064;48.162;11.536;2023-06-24T11:04:54;3.50;;;2.70;;
25069;SDS011;13064;48.162;11.536;2023-06-24T11:07:23;3.95;;;3.00;;
25069;SDS011;13064;48.162;11.536;2023-06-24T11:09:54;2.97;;;2.65;;
25069;SDS011;13064;48.162;11.536;2023-06-24T11:14:50;2.90;;;2.60;;
25069;SDS011;13064;48.162;11.536;2023-06-24T11:17:19;3.47;;;2.38;;
25069;SDS011;13064;48.162;11.536;2023-06-24T11:19:47;2.80;;;2.55;;
25069;SDS011;13064;48.162;11.536;2023-06-24T11:22:15;3.35;;;2.60;;
25069;SDS011;13064;48.162;11.536;2023-06-24T11:27:14;3.10;;;2.33;;
25069;SDS011;13064;48.162;11.536;2023-06-24T11:29:41;2.80;;;2.50;;
25069;SDS011;13064;48.162;11.536;2023-06-24T11:32:09;3.10;;;2.55;;
25069;SDS011;13064;48.162;11.536;2023-06-24T11:34:37;4.30;;;2.50;;
25069;SDS011;13064;48.162;11.536;2023-06-24T11:37:09;2.63;;;2.42;;
25069;SDS011;13064;48.162;11.536;2023-06-24T11:43:31;3.00;;;2.65;;
25069;SDS011;13064;48.162;11.536;2023-06-24T11:45:59;3.03;;;2.60;;
25069;SDS011;13064;48.162;11.536;2023-06-24T11:48:30;3.58;;;3.25;;
25069;SDS011;13064;48.162;11.536;2023-06-24T11:50:58;3.80;;;3.10;;
25069;SDS011;13064;48.162;11.536;2023-06-24T11:53:29;3.67;;;2.90;;
25069;SDS011;13064;48.162;11.536;2023-06-24T11:58:58;5.25;;;3.20;;
25069;SDS011;13064;48.162;11.536;2023-06-24T12:01:35;3.33;;;3.03;;
25069;SDS011;13064;48.162;11.536;2023-06-24T12:04:11;3.42;;;3.13;;
25069;SDS011;13064;48.162;11.536;2023-06-24T12:07:03;4.15;;;2.60;;
25069;SDS011;13064;48.162;11.536;2023-06-24T12:09:38;2.90;;;2.60;;
25069;SDS011;13064;48.162;11.536;2023-06-24T12:12:06;4.10;;;2.92;;
25069;SDS011;13064;48.162;11.536;2023-06-24T12:14:35;4.15;;;2.97;;
25069;SDS011;13064;48.162;11.536;2023-06-24T12:17:03;5.63;;;2.38;;
25069;SDS011;13064;48.162;11.536;2023-06-24T12:19:30;3.08;;;2.78;;
25069;SDS011;13064;48.162;11.536;2023-06-24T12:25:34;4.25;;;3.25;;
25069;SDS011;13064;48.162;11.536;2023-06-24T12:28:02;5.07;;;3.25;;
25069;SDS011;13064;48.162;11.536;2023-06-24T12:33:22;3.95;;;2.90;;
25069;SDS011;13064;48.162;11.536;2023-06-24T12:35:49;3.10;;;2.65;;
25069;SDS011;13064;48.162;11.536;2023-06-24T12:41:11;3.97;;;2.97;;
25069;SDS011;13064;48.162;11.536;2023-06-24T12:43:39;3.45;;;2.65;;
25069;SDS011;13064;48.162;11.536;2023-06-24T12:46:07;4.00;;;3.10;;
25069;SDS011;13064;48.162;11.536;2023-06-24T12:48:35;3.22;;;2.80;;
25069;SDS011;13064;48.162;11.536;2023-06-24T12:51:02;3.92;;;3.10;;
25069;SDS011;13064;48.162;11.536;2023-06-24T12:53:32;3.85;;;2.90;;
25069;SDS011;13064;48.162;11.536;2023-06-24T12:56:00;2.92;;;2.63;;
25069;SDS011;13064;48.162;11.536;2023-06-24T12:58:28;3.90;;;3.17;;
25069;SDS011;13064;48.162;11.536;2023-06-24T13:00:55;4.80;;;3.15;;
25069;SDS011;13064;48.162;11.536;2023-06-24T13:03:23;4.20;;;3.20;;
25069;SDS011;13064;48.162;11.536;2023-06-24T13:05:51;3.15;;;2.85;;
25069;SDS011;13064;48.162;11.536;2023-06-24T13:08:20;4.20;;;2.72;;
25069;SDS011;13064;48.162;11.536;2023-06-24T13:10:48;5.15;;;2.97;;
25069;SDS011;13064;48.162;11.536;2023-06-24T13:13:16;3.95;;;2.90;;
25069;SDS011;13064;48.162;11.536;2023-06-24T13:15:43;7.80;;;4.25;;
25069;SDS011;13064;48.162;11.536;2023-06-24T13:18:11;3.63;;;3.20;;
25069;SDS011;13064;48.162;11.536;2023-06-24T13:20:39;5.38;;;3.08;;
25069;SDS011;13064;48.162;11.536;2023-06-24T13:23:07;3.15;;;2.90;;
25069;SDS011;13064;48.162;11.536;2023-06-24T13:25:35;4.57;;;2.67;;
25069;SDS011;13064;48.162;11.536;2023-06-24T13:28:03;5.35;;;2.90;;
25069;SDS011;13064;48.162;11.536;2023-06-24T13:30:32;3.72;;;2.60;;
25069;SDS011;13064;48.162;11.536;2023-06-24T13:33:00;5.43;;;2.63;;
25069;SDS011;13064;48.162;11.536;2023-06-24T13:35:28;3.92;;;3.22;;
25069;SDS011;13064;48.162;11.536;2023-06-24T13:37:55;3.58;;;2.90;;
25069;SDS011;13064;48.162;11.536;2023-06-24T13:40:24;3.45;;;2.63;;
25069;SDS011;13064;48.162;11.536;2023-06-24T13:42:53;4.63;;;2.75;;
25069;SDS011;13064;48.162;11.536;2023-06-24T13:45:20;3.83;;;3.30;;
25069;SDS011;13064;48.162;11.536;2023-06-24T13:47:48;4.13;;;2.83;;
25069;SDS011;13064;48.162;11.536;2023-06-24T13:53:26;4.07;;;2.95;;
25069;SDS011;13064;48.162;11.536;2023-06-24T13:55:54;4.03;;;2.92;;
25069;SDS011;13064;48.162;11.536;2023-06-24T13:58:22;14.25;;;3.28;;
25069;SDS011;13064;48.162;11.536;2023-06-24T14:00:53;7.50;;;3.35;;
25069;SDS011;13064;48.162;11.536;2023-06-24T14:03:20;10.30;;;3.33;;
25069;SDS011;13064;48.162;11.536;2023-06-24T14:08:43;5.13;;;3.25;;
25069;SDS011;13064;48.162;11.536;2023-06-24T14:11:11;4.22;;;2.95;;
25069;SDS011;13064;48.162;11.536;2023-06-24T14:13:39;6.38;;;3.17;;
25069;SDS011;13064;48.162;11.536;2023-06-24T14:16:07;3.97;;;3.03;;
25069;SDS011;13064;48.162;11.536;2023-06-24T14:18:36;66.15;;;38.75;;
25069;SDS011;13064;48.162;11.536;2023-06-24T14:21:05;11.32;;;6.43;;
25069;SDS011;13064;48.162;11.536;2023-06-24T14:23:34;3.75;;;2.80;;
25069;SDS011;13064;48.162;11.536;2023-06-24T14:26:02;5.43;;;2.85;;
25069;SDS011;13064;48.162;11.536;2023-06-24T14:28:30;8.30;;;3.38;;
25069;SDS011;13064;48.162;11.536;2023-06-24T14:30:58;5.80;;;2.95;;
25069;SDS011;13064;48.162;11.536;2023-06-24T14:33:26;6.47;;;3.10;;
25069;SDS011;13064;48.162;11.536;2023-06-24T14:35:53;7.55;;;3.25;;
25069;SDS011;13064;48.162;11.536;2023-06-24T14:38:24;4.35;;;3.10;;
25069;SDS011;13064;48.162;11.536;2023-06-24T14:40:55;3.63;;;2.80;;
25069;SDS011;13064;48.162;11.536;2023-06-24T14:43:26;6.25;;;3.05;;
25069;SDS011;13064;48.162;11.536;2023-06-24T14:45:53;4.07;;;3.40;;
25069;SDS011;13064;48.162;11.536;2023-06-24T14:48:21;3.90;;;3.25;;
25069;SDS011;13064;48.162;11.536;2023-06-24T14:50:49;5.90;;;3.30;;
25069;SDS011;13064;48.162;11.536;2023-06-24T14:53:16;8.77;;;3.53;;
25069;SDS011;13064;48.162;11.536;2023-06-24T14:55:50;4.32;;;3.30;;
25069;SDS011;13064;48.162;11.536;2023-06-24T14:58:18;4.45;;;2.90;;
25069;SDS011;13064;48.162;11.536;2023-06-24T15:00:48;3.10;;;2.80;;
25069;SDS011;13064;48.162;11.536;2023-06-24T15:03:15;4.25;;;3.00;;
25069;SDS011;13064;48.162;11.536;2023-06-24T15:05:44;4.13;;;3.05;;
25069;SDS011;13064;48.162;11.536;2023-06-24T15:08:12;5.80;;;3.28;;
25069;SDS011;13064;48.162;11.536;2023-06-24T15:10:40;3.50;;;3.20;;
25069;SDS011;13064;48.162;11.536;2023-06-24T15:13:08;6.72;;;3.80;;
25069;SDS011;13064;48.162;11.536;2023-06-24T15:15:36;5.15;;;2.90;;
25069;SDS011;13064;48.162;11.536;2023-06-24T15:18:04;5.68;;;2.92;;
25069;SDS011;13064;48.162;11.536;2023-06-24T15:20:32;4.68;;;3.05;;
25069;SDS011;13064;48.162;11.536;2023-06-24T15:23:00;3.65;;;3.10;;
25069;SDS011;13064;48.162;11.536;2023-06-24T15:25:28;10.88;;;8.98;;
25069;SDS011;13064;48.162;11.536;2023-06-24T15:27:57;6.85;;;5.57;;
25069;SDS011;13064;48.162;11.536;2023-06-24T15:30:25;4.55;;;3.10;;
25069;SDS011;13064;48.162;11.536;2023-06-24T15:32:53;3.78;;;3.20;;
25069;SDS011;13064;48.162;11.536;2023-06-24T15:35:21;3.42;;;3.10;;
25069;SDS011;13064;48.162;11.536;2023-06-24T15:37:49;4.22;;;3.00;;
25069;SDS011;13064;48.162;11.536;2023-06-24T15:40:17;3.08;;;2.72;;
25069;SDS011;13064;48.162;11.536;2023-06-24T15:42:44;3.45;;;2.88;;
25069;SDS011;13064;48.162;11.536;2023-06-24T15:45:12;5.68;;;3.03;;
25069;SDS011;13064;48.162;11.536;2023-06-24T15:47:41;4.10;;;2.75;;
25069;SDS011;13064;48.162;11.536;2023-06-24T15:50:09;3.55;;;2.80;;
25069;SDS011;13064;48.162;11.536;2023-06-24T15:52:36;4.60;;;2.90;;
25069;SDS011;13064;48.162;11.536;2023-06-24T15:55:04;3.30;;;3.00;;
25069;SDS011;13064;48.162;11.536;2023-06-24T15:57:32;3.22;;;2.70;;
25069;SDS011;13064;48.162;11.536;2023-06-24T16:02:49;3.97;;;3.22;;
25069;SDS011;13064;48.162;11.536;2023-06-24T16:08:32;3.88;;;3.10;;
25069;SDS011;13064;48.162;11.536;2023-06-24T16:10:59;5.45;;;2.92;;
25069;SDS011;13064;48.162;11.536;2023-06-24T16:13:27;5.50;;;3.40;;
25069;SDS011;13064;48.162;11.536;2023-06-24T16:15:57;3.75;;;3.17;;
25069;SDS011;13064;48.162;11.536;2023-06-24T16:18:25;4.25;;;3.20;;
25069;SDS011;13064;48.162;11.536;2023-06-24T16:21:03;3.30;;;3.00;;
25069;SDS011;13064;48.162;11.536;2023-06-24T16:23:30;4.28;;;2.92;;
25069;SDS011;13064;48.162;11.536;2023-06-24T16:25:58;6.97;;;3.58;;
25069;SDS011;13064;48.162;11.536;2023-06-24T16:32:09;3.45;;;3.15;;
25069;SDS011;13064;48.162;11.536;2023-06-24T16:34:37;8.43;;;3.47;;
25069;SDS011;13064;48.162;11.536;2023-06-24T16:37:05;4.00;;;2.72;;
25069;SDS011;13064;48.162;11.536;2023-06-24T16:39:32;15.32;;;3.30;;
25069;SDS011;13064;48.162;11.536;2023-06-24T16:42:00;4.22;;;3.08;;
25069;SDS011;13064;48.162;11.536;2023-06-24T16:44:28;3.97;;;3.33;;
25069;SDS011;13064;48.162;11.536;2023-06-24T16:46:59;4.05;;;3.22;;
25069;SDS011;13064;48.162;11.536;2023-06-24T16:49:28;4.65;;;3.20;;
25069;SDS011;13064;48.162;11.536;2023-06-24T16:51:56;4.07;;;3.20;;
25069;SDS011;13064;48.162;11.536;2023-06-24T16:54:24;6.30;;;3.40;;
25069;SDS011;13064;48.162;11.536;2023-06-24T16:56:52;6.00;;;3.05;;
25069;SDS011;13064;48.162;11.536;2023-06-24T16:59:19;6.93;;;3.38;;
25069;SDS011;13064;48.162;11.536;2023-06-24T17:01:47;6.20;;;3.40;;
25069;SDS011;13064;48.162;11.536;2023-06-24T17:04:15;6.50;;;3.67;;
25069;SDS011;13064;48.162;11.536;2023-06-24T17:06:43;6.55;;;3.25;;
25069;SDS011;13064;48.162;11.536;2023-06-24T17:09:10;6.82;;;3.10;;
25069;SDS011;13064;48.162;11.536;2023-06-24T17:11:38;4.45;;;3.08;;
25069;SDS011;13064;48.162;11.536;2023-06-24T17:14:06;3.88;;;3.08;;
25069;SDS011;13064;48.162;11.536;2023-06-24T17:16:34;4.70;;;3.20;;
25069;SDS011;13064;48.162;11.536;2023-06-24T17:19:01;5.53;;;3.60;;
25069;SDS011;13064;48.162;11.536;2023-06-24T17:21:29;4.47;;;3.47;;
25069;SDS011;13064;48.162;11.536;2023-06-24T17:23:57;6.68;;;3.70;;
25069;SDS011;13064;48.162;11.536;2023-06-24T17:26:24;4.82;;;3.60;;
25069;SDS011;13064;48.162;11.536;2023-06-24T17:28:52;3.78;;;3.10;;
25069;SDS011;13064;48.162;11.536;2023-06-24T17:31:20;6.90;;;3.70;;
25069;SDS011;13064;48.162;11.536;2023-06-24T17:33:47;15.43;;;6.10;;
25069;SDS011;13064;48.162;11.536;2023-06-24T17:36:15;8.90;;;4.05;;
25069;SDS011;13064;48.162;11.536;2023-06-24T17:38:43;20.60;;;4.50;;
25069;SDS011;13064;48.162;11.536;2023-06-24T17:41:10;9.57;;;4.57;;
25069;SDS011;13064;48.162;11.536;2023-06-24T17:43:38;9.98;;;4.32;;
25069;SDS011;13064;48.162;11.536;2023-06-24T17:46:06;5.82;;;4.10;;
25069;SDS011;13064;48.162;11.536;2023-06-24T17:48:33;11.55;;;4.15;;
25069;SDS011;13064;48.162;11.536;2023-06-24T17:51:01;6.55;;;3.75;;
25069;SDS011;13064;48.162;11.536;2023-06-24T17:53:29;8.13;;;3.80;;
25069;SDS011;13064;48.162;11.536;2023-06-24T17:55:57;7.35;;;3.72;;
25069;SDS011;13064;48.162;11.536;2023-06-24T18:02:19;9.57;;;3.72;;
25069;SDS011;13064;48.162;11.536;2023-06-24T18:07:50;10.63;;;6.40;;
25069;SDS011;13064;48.162;11.536;2023-06-24T18:10:31;10.43;;;7.18;;
25069;SDS011;13064;48.162;11.536;2023-06-24T18:13:02;19.20;;;6.72;;
25069;SDS011;13064;48.162;11.536;2023-06-24T18:15:30;16.05;;;5.72;;
25069;SDS011;13064;48.162;11.536;2023-06-24T18:17:58;9.20;;;5.15;;
25069;SDS011;13064;48.162;11.536;2023-06-24T18:20:25;9.90;;;5.82;;
25069;SDS011;13064;48.162;11.536;2023-06-24T18:22:53;8.90;;;5.97;;
25069;SDS011;13064;48.162;11.536;2023-06-24T18:25:21;10.55;;;7.22;;
25069;SDS011;13064;48.162;11.536;2023-06-24T18:27:48;9.88;;;6.63;;
25069;SDS011;13064;48.162;11.536;2023-06-24T18:30:16;10.85;;;7.13;;
25069;SDS011;13064;48.162;11.536;2023-06-24T18:32:44;11.77;;;6.72;;
25069;SDS011;13064;48.162;11.536;2023-06-24T18:35:11;13.85;;;6.18;;
25069;SDS011;13064;48.162;11.536;2023-06-24T18:37:39;7.90;;;6.30;;
25069;SDS011;13064;48.162;11.536;2023-06-24T18:40:07;18.60;;;7.25;;
25069;SDS011;13064;48.162;11.536;2023-06-24T18:42:35;14.52;;;8.88;;
25069;SDS011;13064;48.162;11.536;2023-06-24T18:49:03;16.13;;;8.43;;
25069;SDS011;13064;48.162;11.536;2023-06-24T18:51:31;12.85;;;7.90;;
25069;SDS011;13064;48.162;11.536;2023-06-24T18:53:59;16.80;;;8.63;;
25069;SDS011;13064;48.162;11.536;2023-06-24T18:56:26;12.48;;;7.25;;
25069;SDS011;13064;48.162;11.536;2023-06-24T19:02:48;15.18;;;9.80;;
25069;SDS011;13064;48.162;11.536;2023-06-24T19:05:18;23.58;;;10.82;;
25069;SDS011;13064;48.162;11.536;2023-06-24T19:14:58;21.98;;;10.90;;
25069;SDS011;13064;48.162;11.536;2023-06-24T19:17:25;18.08;;;10.57;;
25069;SDS011;13064;48.162;11.536;2023-06-24T19:19:53;22.83;;;10.70;;
25069;SDS011;13064;48.162;11.536;2023-06-24T19:22:21;20.02;;;10.57;;
25069;SDS011;13064;48.162;11.536;2023-06-24T19:24:48;14.75;;;8.57;;
25069;SDS011;13064;48.162;11.536;2023-06-24T19:27:17;17.25;;;8.10;;
25069;SDS011;13064;48.162;11.536;2023-06-24T19:29:44;14.02;;;7.57;;
25069;SDS011;13064;48.162;11.536;2023-06-24T19:32:12;10.50;;;6.47;;
25069;SDS011;13064;48.162;11.536;2023-06-24T19:34:40;11.57;;;6.13;;
25069;SDS011;13064;48.162;11.536;2023-06-24T19:37:08;10.65;;;6.25;;
25069;SDS011;13064;48.162;11.536;2023-06-24T19:39:35;15.00;;;7.10;;
25069;SDS011;13064;48.162;11.536;2023-06-24T19:42:03;12.32;;;8.77;;
25069;SDS011;13064;48.162;11.536;2023-06-24T19:44:31;19.17;;;11.00;;
25069;SDS011;13064;48.162;11.536;2023-06-24T19:50:28;19.45;;;13.02;;
25069;SDS011;13064;48.162;11.536;2023-06-24T19:57:00;16.45;;;10.57;;
25069;SDS011;13064;48.162;11.536;2023-06-24T19:59:27;19.02;;;13.38;;
25069;SDS011;13064;48.162;11.536;2023-06-24T20:01:55;20.02;;;12.32;;
25069;SDS011;13064;48.162;11.536;2023-06-24T20:04:23;16.67;;;12.70;;
25069;SDS011;13064;48.162;11.536;2023-06-24T20:06:51;24.95;;;17.30;;
25069;SDS011;13064;48.162;11.536;2023-06-24T20:09:19;33.97;;;22.17;;
25069;SDS011;13064;48.162;11.536;2023-06-24T20:11:47;26.25;;;17.25;;
25069;SDS011;13064;48.162;11.536;2023-06-24T20:14:15;24.60;;;14.93;;
25069;SDS011;13064;48.162;11.536;2023-06-24T20:16:42;20.48;;;13.10;;
25069;SDS011;13064;48.162;11.536;2023-06-24T20:19:10;19.23;;;13.20;;
25069;SDS011;13064;48.162;11.536;2023-06-24T20:21:38;28.25;;;17.83;;
25069;SDS011;13064;48.162;11.536;2023-06-24T20:24:06;23.08;;;13.57;;
25069;SDS011;13064;48.162;11.536;2023-06-24T20:26:34;13.63;;;9.63;;
25069;SDS011;13064;48.162;11.536;2023-06-24T20:29:02;22.52;;;11.73;;
25069;SDS011;13064;48.162;11.536;2023-06-24T20:31:29;15.88;;;10.55;;
25069;SDS011;13064;48.162;11.536;2023-06-24T20:33:57;15.48;;;10.93;;
25069;SDS011;13064;48.162;11.536;2023-06-24T20:36:25;15.02;;;9.90;;
25069;SDS011;13064;48.162;11.536;2023-06-24T20:38:52;15.05;;;10.10;;
25069;SDS011;13064;48.162;11.536;2023-06-24T20:41:23;12.32;;;7.32;;
25069;SDS011;13064;48.162;11.536;2023-06-24T20:43:54;10.60;;;6.55;;